sensor_id;sensor_type;location;lat;lon;timestamp;temperature;humidity
25320;DHT22;13256;49.012;8.610;2022-10-16T00:00:30;16.40;99.90
25320;DHT22;13256;49.012;8.610;2022-10-16T00:03:03;16.40;99.90
25320;DHT22;13256;49.012;8.610;2022-10-16T00:05:37;16.30;99.90
25320;DHT22;13256;49.012;8.610;2022-10-16T00:08:20;16.30;99.90
25320;DHT22;13256;49.012;8.610;2022-10-16T00:10:49;16.30;99.90
25320;DHT22;13256;49.012;8.610;2022-10-16T00:13:46;16.30;99.90
25320;DHT22;13256;49.012;8.610;2022-10-16T00:16:14;16.30;99.90
25320;DHT22;13256;49.012;8.610;2022-10-16T00:18:41;16.30;99.90
25320;DHT22;13256;49.012;8.610;2022-10-16T00:21:33;16.30;99.90
25320;DHT22;13256;49.012;8.610;2022-10-16T00:24:13;16.30;99.90
25320;DHT22;13256;49.012;8.610;2022-10-16T00:26:46;16.40;99.90
25320;DHT22;13256;49.012;8.610;2022-10-16T00:29:26;16.30;99.90
25320;DHT22;13256;49.012;8.610;2022-10-16T00:31:55;16.30;99.90
25320;DHT22;13256;49.012;8.610;2022-10-16T00:34:22;16.30;99.90
25320;DHT22;13256;49.012;8.610;2022-10-16T00:36:54;16.30;99.90
25320;DHT22;13256;49.012;8.610;2022-10-16T00:39:23;16.30;99.90
25320;DHT22;13256;49.012;8.610;2022-10-16T00:41:51;16.30;99.90
25320;DHT22;13256;49.012;8.610;2022-10-16T00:44:44;16.40;99.90
25320;DHT22;13256;49.012;8.610;2022-10-16T00:48:06;16.30;99.90
25320;DHT22;13256;49.012;8.610;2022-10-16T00:53:55;16.30;99.90
25320;DHT22;13256;49.012;8.610;2022-10-16T00:56:32;16.30;99.90
25320;DHT22;13256;49.012;8.610;2022-10-16T01:05:44;16.30;99.90
25320;DHT22;13256;49.012;8.610;2022-10-16T01:08:55;16.30;99.90
25320;DHT22;13256;49.012;8.610;2022-10-16T01:12:10;16.30;99.90
25320;DHT22;13256;49.012;8.610;2022-10-16T01:14:43;16.30;99.90
25320;DHT22;13256;49.012;8.610;2022-10-16T01:17:33;16.30;99.90
25320;DHT22;13256;49.012;8.610;2022-10-16T01:20:24;16.30;99.90
25320;DHT22;13256;49.012;8.610;2022-10-16T01:23:04;16.30;99.90
25320;DHT22;13256;49.012;8.610;2022-10-16T01:31:59;16.30;99.90
25320;DHT22;13256;49.012;8.610;2022-10-16T01:34:41;16.30;99.90
25320;DHT22;13256;49.012;8.610;2022-10-16T01:37:16;16.30;99.90
25320;DHT22;13256;49.012;8.610;2022-10-16T01:39:47;16.30;99.90
25320;DHT22;13256;49.012;8.610;2022-10-16T01:43:41;16.30;99.90
25320;DHT22;13256;49.012;8.610;2022-10-16T01:46:17;16.30;99.90
25320;DHT22;13256;49.012;8.610;2022-10-16T01:48:48;16.30;99.90
25320;DHT22;13256;49.012;8.610;2022-10-16T01:51:23;16.20;99.90
25320;DHT22;13256;49.012;8.610;2022-10-16T01:53:52;16.20;99.90
25320;DHT22;13256;49.012;8.610;2022-10-16T01:56:20;16.20;99.90
25320;DHT22;13256;49.012;8.610;2022-10-16T01:58:57;16.20;99.90
25320;DHT22;13256;49.012;8.610;2022-10-16T02:01:34;16.20;99.90
25320;DHT22;13256;49.012;8.610;2022-10-16T02:08:39;16.10;99.90
25320;DHT22;13256;49.012;8.610;2022-10-16T02:11:53;16.10;99.90
25320;DHT22;13256;49.012;8.610;2022-10-16T02:14:24;16.10;99.90
25320;DHT22;13256;49.012;8.610;2022-10-16T02:16:54;16.10;99.90
25320;DHT22;13256;49.012;8.610;2022-10-16T02:19:26;16.10;99.90
25320;DHT22;13256;49.012;8.610;2022-10-16T02:22:04;16.10;99.90
25320;DHT22;13256;49.012;8.610;2022-10-16T02:24:56;16.10;99.90
25320;DHT22;13256;49.012;8.610;2022-10-16T02:30:33;16.00;99.90
25320;DHT22;13256;49.012;8.610;2022-10-16T02:33:29;16.00;99.90
25320;DHT22;13256;49.012;8.610;2022-10-16T02:35:57;16.00;99.90
25320;DHT22;13256;49.012;8.610;2022-10-16T02:38:42;16.00;99.90
25320;DHT22;13256;49.012;8.610;2022-10-16T02:41:36;16.00;99.90
25320;DHT22;13256;49.012;8.610;2022-10-16T02:44:05;16.00;99.90
25320;DHT22;13256;49.012;8.610;2022-10-16T02:46:36;16.00;99.90
25320;DHT22;13256;49.012;8.610;2022-10-16T02:49:06;16.00;99.90
25320;DHT22;13256;49.012;8.610;2022-10-16T02:52:03;15.90;99.90
25320;DHT22;13256;49.012;8.610;2022-10-16T02:54:36;15.90;99.90
25320;DHT22;13256;49.012;8.610;2022-10-16T02:57:36;15.90;99.90
25320;DHT22;13256;49.012;8.610;2022-10-16T03:00:32;15.90;99.90
25320;DHT22;13256;49.012;8.610;2022-10-16T03:03:00;15.90;99.90
25320;DHT22;13256;49.012;8.610;2022-10-16T03:05:27;15.80;99.90
25320;DHT22;13256;49.012;8.610;2022-10-16T03:08:01;15.80;99.90
25320;DHT22;13256;49.012;8.610;2022-10-16T03:19:58;15.80;99.90
25320;DHT22;13256;49.012;8.610;2022-10-16T03:22:37;15.80;99.90
25320;DHT22;13256;49.012;8.610;2022-10-16T03:25:19;15.80;99.90
25320;DHT22;13256;49.012;8.610;2022-10-16T03:31:08;15.80;99.90
25320;DHT22;13256;49.012;8.610;2022-10-16T03:33:35;15.70;99.90
25320;DHT22;13256;49.012;8.610;2022-10-16T03:36:07;15.70;99.90
25320;DHT22;13256;49.012;8.610;2022-10-16T03:38:38;15.70;99.90
25320;DHT22;13256;49.012;8.610;2022-10-16T03:41:06;15.70;99.90
25320;DHT22;13256;49.012;8.610;2022-10-16T03:47:04;15.60;99.90
25320;DHT22;13256;49.012;8.610;2022-10-16T03:49:34;15.60;99.90
25320;DHT22;13256;49.012;8.610;2022-10-16T03:52:04;15.60;99.90
25320;DHT22;13256;49.012;8.610;2022-10-16T03:54:32;15.60;99.90
25320;DHT22;13256;49.012;8.610;2022-10-16T03:57:03;15.60;99.90
25320;DHT22;13256;49.012;8.610;2022-10-16T03:59:30;15.60;99.90
25320;DHT22;13256;49.012;8.610;2022-10-16T04:02:00;15.60;99.90
25320;DHT22;13256;49.012;8.610;2022-10-16T04:04:36;15.60;99.90
25320;DHT22;13256;49.012;8.610;2022-10-16T04:07:09;15.60;99.90
25320;DHT22;13256;49.012;8.610;2022-10-16T04:09:42;15.60;99.90
25320;DHT22;13256;49.012;8.610;2022-10-16T04:12:42;15.60;99.90
25320;DHT22;13256;49.012;8.610;2022-10-16T04:15:16;15.60;99.90
25320;DHT22;13256;49.012;8.610;2022-10-16T04:17:46;15.50;99.90
25320;DHT22;13256;49.012;8.610;2022-10-16T04:20:21;15.50;99.90
25320;DHT22;13256;49.012;8.610;2022-10-16T04:22:50;15.50;99.90
25320;DHT22;13256;49.012;8.610;2022-10-16T04:25:17;15.50;99.90
25320;DHT22;13256;49.012;8.610;2022-10-16T04:28:10;15.50;99.90
25320;DHT22;13256;49.012;8.610;2022-10-16T04:30:54;15.50;99.90
25320;DHT22;13256;49.012;8.610;2022-10-16T04:33:23;15.40;99.90
25320;DHT22;13256;49.012;8.610;2022-10-16T04:36:02;15.50;99.90
25320;DHT22;13256;49.012;8.610;2022-10-16T04:38:30;15.40;99.90
25320;DHT22;13256;49.012;8.610;2022-10-16T04:41:00;15.40;99.90
25320;DHT22;13256;49.012;8.610;2022-10-16T04:43:57;15.40;99.90
25320;DHT22;13256;49.012;8.610;2022-10-16T04:46:37;15.40;99.90
25320;DHT22;13256;49.012;8.610;2022-10-16T04:49:04;15.40;99.90
25320;DHT22;13256;49.012;8.610;2022-10-16T04:51:34;15.40;99.90
25320;DHT22;13256;49.012;8.610;2022-10-16T04:54:04;15.40;99.90
25320;DHT22;13256;49.012;8.610;2022-10-16T04:57:01;15.30;99.90
25320;DHT22;13256;49.012;8.610;2022-10-16T04:59:32;15.30;99.90
25320;DHT22;13256;49.012;8.610;2022-10-16T05:01:59;15.30;99.90
25320;DHT22;13256;49.012;8.610;2022-10-16T05:04:32;15.30;99.90
25320;DHT22;13256;49.012;8.610;2022-10-16T05:07:28;15.20;99.90
25320;DHT22;13256;49.012;8.610;2022-10-16T05:09:59;15.20;99.90
25320;DHT22;13256;49.012;8.610;2022-10-16T05:12:37;15.20;99.90
25320;DHT22;13256;49.012;8.610;2022-10-16T05:15:07;15.30;99.90
25320;DHT22;13256;49.012;8.610;2022-10-16T05:17:34;15.20;99.90
25320;DHT22;13256;49.012;8.610;2022-10-16T05:20:14;15.30;99.90
25320;DHT22;13256;49.012;8.610;2022-10-16T05:28:58;15.30;99.90
25320;DHT22;13256;49.012;8.610;2022-10-16T05:31:32;15.30;99.90
25320;DHT22;13256;49.012;8.610;2022-10-16T05:34:03;15.20;99.90
25320;DHT22;13256;49.012;8.610;2022-10-16T05:36:30;15.30;99.90
25320;DHT22;13256;49.012;8.610;2022-10-16T05:39:01;15.30;99.90
25320;DHT22;13256;49.012;8.610;2022-10-16T05:41:29;15.20;99.90
25320;DHT22;13256;49.012;8.610;2022-10-16T05:43:56;15.30;99.90
25320;DHT22;13256;49.012;8.610;2022-10-16T05:46:25;15.20;99.90
25320;DHT22;13256;49.012;8.610;2022-10-16T05:48:54;15.20;99.90
25320;DHT22;13256;49.012;8.610;2022-10-16T05:51:23;15.20;99.90
25320;DHT22;13256;49.012;8.610;2022-10-16T05:53:52;15.20;99.90
25320;DHT22;13256;49.012;8.610;2022-10-16T05:56:21;15.20;99.90
25320;DHT22;13256;49.012;8.610;2022-10-16T05:58:48;15.20;99.90
25320;DHT22;13256;49.012;8.610;2022-10-16T06:01:19;15.20;99.90
25320;DHT22;13256;49.012;8.610;2022-10-16T06:04:01;15.20;99.90
25320;DHT22;13256;49.012;8.610;2022-10-16T06:06:28;15.20;99.90
25320;DHT22;13256;49.012;8.610;2022-10-16T06:08:56;15.20;99.90
25320;DHT22;13256;49.012;8.610;2022-10-16T06:11:25;15.20;99.90
25320;DHT22;13256;49.012;8.610;2022-10-16T06:14:01;15.20;99.90
25320;DHT22;13256;49.012;8.610;2022-10-16T06:16:29;15.20;99.90
25320;DHT22;13256;49.012;8.610;2022-10-16T06:18:58;15.10;99.90
25320;DHT22;13256;49.012;8.610;2022-10-16T06:21:27;15.10;99.90
25320;DHT22;13256;49.012;8.610;2022-10-16T06:23:56;15.10;99.90
25320;DHT22;13256;49.012;8.610;2022-10-16T06:26:26;15.10;99.90
25320;DHT22;13256;49.012;8.610;2022-10-16T06:28:57;15.10;99.90
25320;DHT22;13256;49.012;8.610;2022-10-16T06:31:29;15.10;99.90
25320;DHT22;13256;49.012;8.610;2022-10-16T06:34:01;15.10;99.90
25320;DHT22;13256;49.012;8.610;2022-10-16T06:36:29;15.10;99.90
25320;DHT22;13256;49.012;8.610;2022-10-16T06:38:59;15.10;99.90
25320;DHT22;13256;49.012;8.610;2022-10-16T06:41:30;15.10;99.90
25320;DHT22;13256;49.012;8.610;2022-10-16T06:44:01;15.10;99.90
25320;DHT22;13256;49.012;8.610;2022-10-16T06:46:31;15.20;99.90
25320;DHT22;13256;49.012;8.610;2022-10-16T06:48:57;15.20;99.90
25320;DHT22;13256;49.012;8.610;2022-10-16T06:51:29;15.20;99.90
25320;DHT22;13256;49.012;8.610;2022-10-16T06:53:58;15.20;99.90
25320;DHT22;13256;49.012;8.610;2022-10-16T06:56:31;15.20;99.90
25320;DHT22;13256;49.012;8.610;2022-10-16T06:59:02;15.20;99.90
25320;DHT22;13256;49.012;8.610;2022-10-16T07:01:32;15.20;99.90
25320;DHT22;13256;49.012;8.610;2022-10-16T07:04:04;15.20;99.90
25320;DHT22;13256;49.012;8.610;2022-10-16T07:06:34;15.20;99.90
25320;DHT22;13256;49.012;8.610;2022-10-16T07:09:05;15.20;99.90
25320;DHT22;13256;49.012;8.610;2022-10-16T07:11:41;15.10;99.90
25320;DHT22;13256;49.012;8.610;2022-10-16T07:14:21;15.20;99.90
25320;DHT22;13256;49.012;8.610;2022-10-16T07:16:48;15.30;99.90
25320;DHT22;13256;49.012;8.610;2022-10-16T07:19:18;15.30;99.90
25320;DHT22;13256;49.012;8.610;2022-10-16T07:21:45;15.30;99.90
25320;DHT22;13256;49.012;8.610;2022-10-16T07:24:18;15.50;99.90
25320;DHT22;13256;49.012;8.610;2022-10-16T07:26:46;15.50;99.90
25320;DHT22;13256;49.012;8.610;2022-10-16T07:29:20;15.60;99.90
25320;DHT22;13256;49.012;8.610;2022-10-16T07:31:48;15.70;99.90
25320;DHT22;13256;49.012;8.610;2022-10-16T07:40:16;15.80;99.90
25320;DHT22;13256;49.012;8.610;2022-10-16T07:42:46;15.90;99.90
25320;DHT22;13256;49.012;8.610;2022-10-16T07:45:15;16.00;99.90
25320;DHT22;13256;49.012;8.610;2022-10-16T07:47:46;16.00;99.90
25320;DHT22;13256;49.012;8.610;2022-10-16T07:50:18;16.10;99.90
25320;DHT22;13256;49.012;8.610;2022-10-16T07:52:46;16.20;99.90
25320;DHT22;13256;49.012;8.610;2022-10-16T07:55:13;16.20;99.90
25320;DHT22;13256;49.012;8.610;2022-10-16T07:57:42;16.20;99.90
25320;DHT22;13256;49.012;8.610;2022-10-16T08:00:12;16.30;99.90
25320;DHT22;13256;49.012;8.610;2022-10-16T08:02:41;16.40;99.90
25320;DHT22;13256;49.012;8.610;2022-10-16T08:05:08;16.40;99.90
25320;DHT22;13256;49.012;8.610;2022-10-16T08:07:35;16.50;99.90
25320;DHT22;13256;49.012;8.610;2022-10-16T08:10:02;16.50;99.90
25320;DHT22;13256;49.012;8.610;2022-10-16T08:12:33;16.50;99.90
25320;DHT22;13256;49.012;8.610;2022-10-16T08:15:03;16.60;99.90
25320;DHT22;13256;49.012;8.610;2022-10-16T08:17:30;16.70;99.90
25320;DHT22;13256;49.012;8.610;2022-10-16T08:19:57;16.70;99.90
25320;DHT22;13256;49.012;8.610;2022-10-16T08:22:24;16.80;99.90
25320;DHT22;13256;49.012;8.610;2022-10-16T08:24:50;17.00;99.90
25320;DHT22;13256;49.012;8.610;2022-10-16T08:27:17;17.10;99.90
25320;DHT22;13256;49.012;8.610;2022-10-16T08:29:43;17.20;99.90
25320;DHT22;13256;49.012;8.610;2022-10-16T08:32:10;17.40;99.90
25320;DHT22;13256;49.012;8.610;2022-10-16T08:34:37;17.50;99.90
25320;DHT22;13256;49.012;8.610;2022-10-16T08:37:04;17.60;99.90
25320;DHT22;13256;49.012;8.610;2022-10-16T08:39:31;17.60;99.90
25320;DHT22;13256;49.012;8.610;2022-10-16T08:44:42;17.70;99.90
25320;DHT22;13256;49.012;8.610;2022-10-16T08:47:26;17.80;99.90
25320;DHT22;13256;49.012;8.610;2022-10-16T08:50:12;17.80;99.90
25320;DHT22;13256;49.012;8.610;2022-10-16T08:52:41;17.80;99.90
25320;DHT22;13256;49.012;8.610;2022-10-16T08:55:30;17.90;99.90
25320;DHT22;13256;49.012;8.610;2022-10-16T08:57:59;18.10;99.90
25320;DHT22;13256;49.012;8.610;2022-10-16T09:00:31;18.10;99.90
25320;DHT22;13256;49.012;8.610;2022-10-16T09:05:48;18.50;99.90
25320;DHT22;13256;49.012;8.610;2022-10-16T09:11:03;18.90;99.90
25320;DHT22;13256;49.012;8.610;2022-10-16T09:28:55;21.10;99.90
25320;DHT22;13256;49.012;8.610;2022-10-16T09:31:26;21.20;99.90
25320;DHT22;13256;49.012;8.610;2022-10-16T09:33:55;21.30;99.90
25320;DHT22;13256;49.012;8.610;2022-10-16T09:36:23;21.30;99.90
25320;DHT22;13256;49.012;8.610;2022-10-16T09:39:05;21.20;99.90
25320;DHT22;13256;49.012;8.610;2022-10-16T09:41:39;21.10;99.90
25320;DHT22;13256;49.012;8.610;2022-10-16T09:44:30;20.90;99.90
25320;DHT22;13256;49.012;8.610;2022-10-16T09:47:15;20.70;99.90
25320;DHT22;13256;49.012;8.610;2022-10-16T09:50:20;20.70;99.90
25320;DHT22;13256;49.012;8.610;2022-10-16T09:52:51;20.60;99.90
25320;DHT22;13256;49.012;8.610;2022-10-16T09:55:28;20.60;99.90
25320;DHT22;13256;49.012;8.610;2022-10-16T09:57:57;20.50;99.90
25320;DHT22;13256;49.012;8.610;2022-10-16T10:00:31;20.50;99.90
25320;DHT22;13256;49.012;8.610;2022-10-16T10:02:58;20.70;99.90
25320;DHT22;13256;49.012;8.610;2022-10-16T10:05:29;20.80;99.90
25320;DHT22;13256;49.012;8.610;2022-10-16T10:08:00;20.90;99.90
25320;DHT22;13256;49.012;8.610;2022-10-16T10:10:31;20.90;99.90
25320;DHT22;13256;49.012;8.610;2022-10-16T10:12:59;20.90;99.90
25320;DHT22;13256;49.012;8.610;2022-10-16T10:15:35;20.80;99.90
25320;DHT22;13256;49.012;8.610;2022-10-16T10:18:20;20.70;99.90
25320;DHT22;13256;49.012;8.610;2022-10-16T10:20:59;20.70;99.90
25320;DHT22;13256;49.012;8.610;2022-10-16T10:23:30;20.70;99.90
25320;DHT22;13256;49.012;8.610;2022-10-16T10:26:20;20.60;99.90
25320;DHT22;13256;49.012;8.610;2022-10-16T10:31:54;20.60;99.90
25320;DHT22;13256;49.012;8.610;2022-10-16T10:45:52;21.30;99.90
25320;DHT22;13256;49.012;8.610;2022-10-16T10:54:13;22.20;99.90
25320;DHT22;13256;49.012;8.610;2022-10-16T11:02:44;22.70;99.90
25320;DHT22;13256;49.012;8.610;2022-10-16T11:05:47;22.80;99.90
25320;DHT22;13256;49.012;8.610;2022-10-16T11:08:50;22.90;99.90
25320;DHT22;13256;49.012;8.610;2022-10-16T11:11:22;22.90;99.90
25320;DHT22;13256;49.012;8.610;2022-10-16T11:14:06;22.70;99.90
25320;DHT22;13256;49.012;8.610;2022-10-16T11:17:06;22.50;99.90
25320;DHT22;13256;49.012;8.610;2022-10-16T11:19:48;22.40;99.90
25320;DHT22;13256;49.012;8.610;2022-10-16T11:30:50;22.20;99.90
25320;DHT22;13256;49.012;8.610;2022-10-16T11:39:21;22.50;99.90
25320;DHT22;13256;49.012;8.610;2022-10-16T11:55:36;23.20;99.90
25320;DHT22;13256;49.012;8.610;2022-10-16T12:06:47;23.20;99.90
25320;DHT22;13256;49.012;8.610;2022-10-16T12:09:26;23.20;99.90
25320;DHT22;13256;49.012;8.610;2022-10-16T12:11:53;23.20;99.90
25320;DHT22;13256;49.012;8.610;2022-10-16T12:17:22;23.20;99.90
25320;DHT22;13256;49.012;8.610;2022-10-16T12:20:20;23.20;99.90
25320;DHT22;13256;49.012;8.610;2022-10-16T12:23:16;23.20;99.90
25320;DHT22;13256;49.012;8.610;2022-10-16T12:25:42;23.20;99.90
25320;DHT22;13256;49.012;8.610;2022-10-16T12:28:17;23.20;99.90
25320;DHT22;13256;49.012;8.610;2022-10-16T12:33:32;23.30;99.90
25320;DHT22;13256;49.012;8.610;2022-10-16T12:36:26;23.40;99.90
25320;DHT22;13256;49.012;8.610;2022-10-16T12:38:54;23.30;99.90
25320;DHT22;13256;49.012;8.610;2022-10-16T12:41:35;23.30;99.90
25320;DHT22;13256;49.012;8.610;2022-10-16T12:44:03;23.30;99.90
25320;DHT22;13256;49.012;8.610;2022-10-16T12:46:38;23.30;99.90
25320;DHT22;13256;49.012;8.610;2022-10-16T12:51:42;23.20;99.90
25320;DHT22;13256;49.012;8.610;2022-10-16T12:54:13;23.10;99.90
25320;DHT22;13256;49.012;8.610;2022-10-16T13:02:46;23.10;99.90
25320;DHT22;13256;49.012;8.610;2022-10-16T13:10:39;23.00;99.90
25320;DHT22;13256;49.012;8.610;2022-10-16T13:28:12;22.70;99.90
25320;DHT22;13256;49.012;8.610;2022-10-16T13:30:53;22.60;99.90
25320;DHT22;13256;49.012;8.610;2022-10-16T13:36:26;22.60;99.90
25320;DHT22;13256;49.012;8.610;2022-10-16T13:39:14;22.70;99.90
25320;DHT22;13256;49.012;8.610;2022-10-16T13:44:39;22.70;99.90
25320;DHT22;13256;49.012;8.610;2022-10-16T13:50:17;22.80;99.90
25320;DHT22;13256;49.012;8.610;2022-10-16T13:53:07;22.70;99.90
25320;DHT22;13256;49.012;8.610;2022-10-16T13:55:40;22.70;99.90
25320;DHT22;13256;49.012;8.610;2022-10-16T14:01:20;22.60;99.90
25320;DHT22;13256;49.012;8.610;2022-10-16T14:04:05;22.50;99.90
25320;DHT22;13256;49.012;8.610;2022-10-16T14:12:12;22.20;99.90
25320;DHT22;13256;49.012;8.610;2022-10-16T14:14:50;22.10;99.90
25320;DHT22;13256;49.012;8.610;2022-10-16T14:17:28;22.10;99.90
25320;DHT22;13256;49.012;8.610;2022-10-16T14:20:12;22.10;99.90
25320;DHT22;13256;49.012;8.610;2022-10-16T14:22:47;22.00;99.90
25320;DHT22;13256;49.012;8.610;2022-10-16T14:25:32;22.00;99.90
25320;DHT22;13256;49.012;8.610;2022-10-16T14:28:13;22.00;99.90
25320;DHT22;13256;49.012;8.610;2022-10-16T14:30:58;22.00;99.90
25320;DHT22;13256;49.012;8.610;2022-10-16T14:33:33;22.00;99.90
25320;DHT22;13256;49.012;8.610;2022-10-16T14:38:37;22.20;99.90
25320;DHT22;13256;49.012;8.610;2022-10-16T14:41:06;22.20;99.90
25320;DHT22;13256;49.012;8.610;2022-10-16T14:43:40;22.40;99.90
25320;DHT22;13256;49.012;8.610;2022-10-16T14:51:40;22.50;99.90
25320;DHT22;13256;49.012;8.610;2022-10-16T14:54:18;22.40;99.90
25320;DHT22;13256;49.012;8.610;2022-10-16T14:56:51;22.30;99.90
25320;DHT22;13256;49.012;8.610;2022-10-16T14:59:36;22.20;99.90
25320;DHT22;13256;49.012;8.610;2022-10-16T15:02:29;22.20;99.90
25320;DHT22;13256;49.012;8.610;2022-10-16T15:04:56;22.20;99.90
25320;DHT22;13256;49.012;8.610;2022-10-16T15:07:24;22.30;99.90
25320;DHT22;13256;49.012;8.610;2022-10-16T15:09:52;22.40;99.90
25320;DHT22;13256;49.012;8.610;2022-10-16T15:12:29;22.50;99.90
25320;DHT22;13256;49.012;8.610;2022-10-16T15:14:55;22.60;99.90
25320;DHT22;13256;49.012;8.610;2022-10-16T15:17:25;22.60;99.90
25320;DHT22;13256;49.012;8.610;2022-10-16T15:22:44;22.70;99.90
25320;DHT22;13256;49.012;8.610;2022-10-16T15:27:58;22.50;99.90
25320;DHT22;13256;49.012;8.610;2022-10-16T15:30:32;22.40;99.90
25320;DHT22;13256;49.012;8.610;2022-10-16T15:33:01;22.40;99.90
25320;DHT22;13256;49.012;8.610;2022-10-16T15:35:29;22.30;99.90
25320;DHT22;13256;49.012;8.610;2022-10-16T15:40:52;22.20;99.90
25320;DHT22;13256;49.012;8.610;2022-10-16T15:43:19;22.20;99.90
25320;DHT22;13256;49.012;8.610;2022-10-16T15:46:03;22.10;99.90
25320;DHT22;13256;49.012;8.610;2022-10-16T15:48:34;22.10;99.90
25320;DHT22;13256;49.012;8.610;2022-10-16T15:51:05;22.00;99.90
25320;DHT22;13256;49.012;8.610;2022-10-16T15:53:32;21.90;99.90
25320;DHT22;13256;49.012;8.610;2022-10-16T15:56:04;21.90;99.90
25320;DHT22;13256;49.012;8.610;2022-10-16T15:58:36;21.80;99.90
25320;DHT22;13256;49.012;8.610;2022-10-16T16:01:03;21.70;99.90
25320;DHT22;13256;49.012;8.610;2022-10-16T16:03:33;21.60;99.90
25320;DHT22;13256;49.012;8.610;2022-10-16T16:06:05;21.40;99.90
25320;DHT22;13256;49.012;8.610;2022-10-16T16:08:58;21.30;99.90
25320;DHT22;13256;49.012;8.610;2022-10-16T16:11:26;21.20;99.90
25320;DHT22;13256;49.012;8.610;2022-10-16T16:13:53;21.10;99.90
25320;DHT22;13256;49.012;8.610;2022-10-16T16:16:48;21.10;99.90
25320;DHT22;13256;49.012;8.610;2022-10-16T16:19:15;20.90;99.90
25320;DHT22;13256;49.012;8.610;2022-10-16T16:21:44;20.80;99.90
25320;DHT22;13256;49.012;8.610;2022-10-16T16:24:15;20.80;99.90
25320;DHT22;13256;49.012;8.610;2022-10-16T16:26:44;20.70;99.90
25320;DHT22;13256;49.012;8.610;2022-10-16T16:29:12;20.60;99.90
25320;DHT22;13256;49.012;8.610;2022-10-16T16:31:51;20.50;99.90
25320;DHT22;13256;49.012;8.610;2022-10-16T16:34:28;20.40;99.90
25320;DHT22;13256;49.012;8.610;2022-10-16T16:36:56;20.30;99.90
25320;DHT22;13256;49.012;8.610;2022-10-16T16:39:23;20.30;99.90
25320;DHT22;13256;49.012;8.610;2022-10-16T16:41:50;20.20;99.90
25320;DHT22;13256;49.012;8.610;2022-10-16T16:44:17;20.00;99.90
25320;DHT22;13256;49.012;8.610;2022-10-16T16:46:51;19.90;99.90
25320;DHT22;13256;49.012;8.610;2022-10-16T16:49:18;19.70;99.90
25320;DHT22;13256;49.012;8.610;2022-10-16T16:51:46;19.60;99.90
25320;DHT22;13256;49.012;8.610;2022-10-16T16:54:13;19.60;99.90
25320;DHT22;13256;49.012;8.610;2022-10-16T16:56:44;19.40;99.90
25320;DHT22;13256;49.012;8.610;2022-10-16T16:59:18;19.30;99.90
25320;DHT22;13256;49.012;8.610;2022-10-16T17:01:49;19.20;99.90
25320;DHT22;13256;49.012;8.610;2022-10-16T17:04:22;19.10;99.90
25320;DHT22;13256;49.012;8.610;2022-10-16T17:06:55;19.00;99.90
25320;DHT22;13256;49.012;8.610;2022-10-16T17:09:50;19.00;99.90
25320;DHT22;13256;49.012;8.610;2022-10-16T17:12:20;19.00;99.90
25320;DHT22;13256;49.012;8.610;2022-10-16T17:14:47;18.90;99.90
25320;DHT22;13256;49.012;8.610;2022-10-16T17:17:14;18.90;99.90
25320;DHT22;13256;49.012;8.610;2022-10-16T17:19:48;18.90;99.90
25320;DHT22;13256;49.012;8.610;2022-10-16T17:22:15;18.90;99.90
25320;DHT22;13256;49.012;8.610;2022-10-16T17:24:42;18.80;99.90
25320;DHT22;13256;49.012;8.610;2022-10-16T17:27:13;18.70;99.90
25320;DHT22;13256;49.012;8.610;2022-10-16T17:29:40;18.70;99.90
25320;DHT22;13256;49.012;8.610;2022-10-16T17:32:10;18.70;99.90
25320;DHT22;13256;49.012;8.610;2022-10-16T17:34:41;18.60;99.90
25320;DHT22;13256;49.012;8.610;2022-10-16T17:37:11;18.60;99.90
25320;DHT22;13256;49.012;8.610;2022-10-16T17:39:44;18.50;99.90
25320;DHT22;13256;49.012;8.610;2022-10-16T17:42:13;18.40;99.90
25320;DHT22;13256;49.012;8.610;2022-10-16T17:44:40;18.30;99.90
25320;DHT22;13256;49.012;8.610;2022-10-16T17:47:07;18.20;99.90
25320;DHT22;13256;49.012;8.610;2022-10-16T17:49:36;18.10;99.90
25320;DHT22;13256;49.012;8.610;2022-10-16T17:52:03;17.90;99.90
25320;DHT22;13256;49.012;8.610;2022-10-16T17:54:34;17.80;99.90
25320;DHT22;13256;49.012;8.610;2022-10-16T17:57:01;17.60;99.90
25320;DHT22;13256;49.012;8.610;2022-10-16T17:59:28;17.60;99.90
25320;DHT22;13256;49.012;8.610;2022-10-16T18:01:55;17.50;99.90
25320;DHT22;13256;49.012;8.610;2022-10-16T18:04:24;17.40;99.90
25320;DHT22;13256;49.012;8.610;2022-10-16T18:06:53;17.40;99.90
25320;DHT22;13256;49.012;8.610;2022-10-16T18:09:25;17.40;99.90
25320;DHT22;13256;49.012;8.610;2022-10-16T18:12:17;17.30;99.90
25320;DHT22;13256;49.012;8.610;2022-10-16T18:14:44;17.30;99.90
25320;DHT22;13256;49.012;8.610;2022-10-16T18:17:14;17.20;99.90
25320;DHT22;13256;49.012;8.610;2022-10-16T18:19:45;17.10;99.90
25320;DHT22;13256;49.012;8.610;2022-10-16T18:22:15;17.10;99.90
25320;DHT22;13256;49.012;8.610;2022-10-16T18:24:49;17.00;99.90
25320;DHT22;13256;49.012;8.610;2022-10-16T18:27:16;17.00;99.90
25320;DHT22;13256;49.012;8.610;2022-10-16T18:29:48;16.90;99.90
25320;DHT22;13256;49.012;8.610;2022-10-16T18:32:18;16.90;99.90
25320;DHT22;13256;49.012;8.610;2022-10-16T18:34:45;16.80;99.90
25320;DHT22;13256;49.012;8.610;2022-10-16T18:37:16;16.70;99.90
25320;DHT22;13256;49.012;8.610;2022-10-16T18:39:48;16.70;99.90
25320;DHT22;13256;49.012;8.610;2022-10-16T18:42:19;16.70;99.90
25320;DHT22;13256;49.012;8.610;2022-10-16T18:44:46;16.70;99.90
25320;DHT22;13256;49.012;8.610;2022-10-16T18:47:18;16.60;99.90
25320;DHT22;13256;49.012;8.610;2022-10-16T18:49:49;16.60;99.90
25320;DHT22;13256;49.012;8.610;2022-10-16T18:52:18;16.60;99.90
25320;DHT22;13256;49.012;8.610;2022-10-16T18:54:44;16.50;99.90
25320;DHT22;13256;49.012;8.610;2022-10-16T18:57:13;16.50;99.90
25320;DHT22;13256;49.012;8.610;2022-10-16T18:59:40;16.50;99.90
25320;DHT22;13256;49.012;8.610;2022-10-16T19:02:08;16.40;99.90
25320;DHT22;13256;49.012;8.610;2022-10-16T19:04:37;16.30;99.90
25320;DHT22;13256;49.012;8.610;2022-10-16T19:07:11;16.30;99.90
25320;DHT22;13256;49.012;8.610;2022-10-16T19:09:41;16.20;99.90
25320;DHT22;13256;49.012;8.610;2022-10-16T19:12:07;16.20;99.90
25320;DHT22;13256;49.012;8.610;2022-10-16T19:32:22;15.80;99.90
25320;DHT22;13256;49.012;8.610;2022-10-16T19:38:16;15.90;99.90
25320;DHT22;13256;49.012;8.610;2022-10-16T19:40:42;15.90;99.90
25320;DHT22;13256;49.012;8.610;2022-10-16T19:43:09;15.90;99.90
25320;DHT22;13256;49.012;8.610;2022-10-16T19:45:36;15.90;99.90
25320;DHT22;13256;49.012;8.610;2022-10-16T19:48:28;15.80;99.90
25320;DHT22;13256;49.012;8.610;2022-10-16T19:50:54;15.80;99.90
25320;DHT22;13256;49.012;8.610;2022-10-16T19:53:21;15.70;99.90
25320;DHT22;13256;49.012;8.610;2022-10-16T19:55:48;15.60;99.90
25320;DHT22;13256;49.012;8.610;2022-10-16T19:58:22;15.60;99.90
25320;DHT22;13256;49.012;8.610;2022-10-16T20:00:51;15.60;99.90